sensor_id;sensor_type;location;lat;lon;timestamp;P1;durP1;ratioP1;P2;durP2;ratioP2
58553;SDS011;48119;53.218;6.576;2023-06-26T00:01:06;7.93;;;6.15;;
58553;SDS011;48119;53.218;6.576;2023-06-26T00:03:32;6.35;;;5.30;;
58553;SDS011;48119;53.218;6.576;2023-06-26T00:05:58;6.55;;;5.85;;
58553;SDS011;48119;53.218;6.576;2023-06-26T00:08:26;11.35;;;6.45;;
58553;SDS011;48119;53.218;6.576;2023-06-26T00:10:52;7.88;;;5.47;;
58553;SDS011;48119;53.218;6.576;2023-06-26T00:13:18;6.90;;;5.97;;
58553;SDS011;48119;53.218;6.576;2023-06-26T00:15:44;7.75;;;5.55;;
58553;SDS011;48119;53.218;6.576;2023-06-26T00:18:10;11.48;;;5.63;;
58553;SDS011;48119;53.218;6.576;2023-06-26T00:20:36;9.25;;;5.50;;
58553;SDS011;48119;53.218;6.576;2023-06-26T00:23:01;8.40;;;6.03;;
58553;SDS011;48119;53.218;6.576;2023-06-26T00:25:32;6.47;;;5.82;;
58553;SDS011;48119;53.218;6.576;2023-06-26T00:27:59;9.35;;;5.80;;
58553;SDS011;48119;53.218;6.576;2023-06-26T00:30:25;6.97;;;5.50;;
58553;SDS011;48119;53.218;6.576;2023-06-26T00:32:50;7.63;;;5.93;;
58553;SDS011;48119;53.218;6.576;2023-06-26T00:35:16;8.57;;;6.05;;
58553;SDS011;48119;53.218;6.576;2023-06-26T00:37:42;7.00;;;6.32;;
58553;SDS011;48119;53.218;6.576;2023-06-26T00:40:08;7.68;;;5.85;;
58553;SDS011;48119;53.218;6.576;2023-06-26T00:42:34;8.50;;;6.10;;
58553;SDS011;48119;53.218;6.576;2023-06-26T00:45:00;10.45;;;6.93;;
58553;SDS011;48119;53.218;6.576;2023-06-26T00:47:26;8.52;;;6.60;;
58553;SDS011;48119;53.218;6.576;2023-06-26T00:49:52;8.98;;;6.35;;
58553;SDS011;48119;53.218;6.576;2023-06-26T00:52:20;9.93;;;7.43;;
58553;SDS011;48119;53.218;6.576;2023-06-26T00:54:46;8.73;;;6.60;;
58553;SDS011;48119;53.218;6.576;2023-06-26T00:57:13;7.63;;;6.65;;
58553;SDS011;48119;53.218;6.576;2023-06-26T00:59:39;11.23;;;6.07;;
58553;SDS011;48119;53.218;6.576;2023-06-26T01:02:05;8.32;;;6.40;;
58553;SDS011;48119;53.218;6.576;2023-06-26T01:04:31;7.60;;;6.80;;
58553;SDS011;48119;53.218;6.576;2023-06-26T01:06:57;8.20;;;7.15;;
58553;SDS011;48119;53.218;6.576;2023-06-26T01:09:26;8.85;;;6.47;;
58553;SDS011;48119;53.218;6.576;2023-06-26T01:11:52;7.82;;;6.75;;
58553;SDS011;48119;53.218;6.576;2023-06-26T01:14:18;8.10;;;6.53;;
58553;SDS011;48119;53.218;6.576;2023-06-26T01:16:44;8.07;;;6.75;;
58553;SDS011;48119;53.218;6.576;2023-06-26T01:19:30;8.55;;;6.80;;
58553;SDS011;48119;53.218;6.576;2023-06-26T01:22:16;9.45;;;6.82;;
58553;SDS011;48119;53.218;6.576;2023-06-26T01:25:01;8.30;;;6.55;;
58553;SDS011;48119;53.218;6.576;2023-06-26T01:27:37;8.50;;;6.63;;
58553;SDS011;48119;53.218;6.576;2023-06-26T01:30:06;7.35;;;6.45;;
58553;SDS011;48119;53.218;6.576;2023-06-26T01:32:33;10.02;;;6.70;;
58553;SDS011;48119;53.218;6.576;2023-06-26T01:34:59;7.18;;;6.22;;
58553;SDS011;48119;53.218;6.576;2023-06-26T01:37:25;8.73;;;6.32;;
58553;SDS011;48119;53.218;6.576;2023-06-26T01:39:51;7.13;;;5.63;;
58553;SDS011;48119;53.218;6.576;2023-06-26T01:42:16;11.27;;;5.90;;
58553;SDS011;48119;53.218;6.576;2023-06-26T01:44:44;8.77;;;7.07;;
58553;SDS011;48119;53.218;6.576;2023-06-26T01:47:11;7.05;;;6.25;;
58553;SDS011;48119;53.218;6.576;2023-06-26T01:49:47;8.68;;;6.38;;
58553;SDS011;48119;53.218;6.576;2023-06-26T01:52:30;10.43;;;6.93;;
58553;SDS011;48119;53.218;6.576;2023-06-26T01:58:12;9.50;;;7.45;;
58553;SDS011;48119;53.218;6.576;2023-06-26T02:00:39;7.50;;;6.30;;
58553;SDS011;48119;53.218;6.576;2023-06-26T02:03:06;6.78;;;6.10;;
58553;SDS011;48119;53.218;6.576;2023-06-26T02:05:32;6.85;;;6.10;;
58553;SDS011;48119;53.218;6.576;2023-06-26T02:07:58;8.40;;;6.47;;
58553;SDS011;48119;53.218;6.576;2023-06-26T02:10:26;8.05;;;7.25;;
58553;SDS011;48119;53.218;6.576;2023-06-26T02:12:52;7.78;;;6.97;;
58553;SDS011;48119;53.218;6.576;2023-06-26T02:15:17;9.25;;;6.50;;
58553;SDS011;48119;53.218;6.576;2023-06-26T02:17:43;10.73;;;6.45;;
58553;SDS011;48119;53.218;6.576;2023-06-26T02:20:13;9.32;;;7.45;;
58553;SDS011;48119;53.218;6.576;2023-06-26T02:22:39;10.27;;;7.60;;
58553;SDS011;48119;53.218;6.576;2023-06-26T02:25:05;9.40;;;7.03;;
58553;SDS011;48119;53.218;6.576;2023-06-26T02:27:31;7.45;;;6.63;;
58553;SDS011;48119;53.218;6.576;2023-06-26T02:29:57;8.20;;;6.47;;
58553;SDS011;48119;53.218;6.576;2023-06-26T02:32:22;8.40;;;6.82;;
58553;SDS011;48119;53.218;6.576;2023-06-26T02:34:48;13.23;;;6.90;;
58553;SDS011;48119;53.218;6.576;2023-06-26T02:37:16;8.63;;;6.97;;
58553;SDS011;48119;53.218;6.576;2023-06-26T02:39:43;9.80;;;7.07;;
58553;SDS011;48119;53.218;6.576;2023-06-26T02:42:08;8.68;;;7.07;;
58553;SDS011;48119;53.218;6.576;2023-06-26T02:44:34;7.55;;;6.70;;
58553;SDS011;48119;53.218;6.576;2023-06-26T02:47:00;8.23;;;7.03;;
58553;SDS011;48119;53.218;6.576;2023-06-26T02:49:26;10.65;;;6.68;;
58553;SDS011;48119;53.218;6.576;2023-06-26T02:51:51;8.93;;;7.22;;
58553;SDS011;48119;53.218;6.576;2023-06-26T02:54:17;10.25;;;7.60;;
58553;SDS011;48119;53.218;6.576;2023-06-26T02:56:43;8.38;;;7.18;;
58553;SDS011;48119;53.218;6.576;2023-06-26T02:59:10;10.07;;;6.70;;
58553;SDS011;48119;53.218;6.576;2023-06-26T03:01:35;8.88;;;7.05;;
58553;SDS011;48119;53.218;6.576;2023-06-26T03:04:01;8.90;;;7.50;;
58553;SDS011;48119;53.218;6.576;2023-06-26T03:06:27;10.52;;;8.25;;
58553;SDS011;48119;53.218;6.576;2023-06-26T03:08:53;9.13;;;7.13;;
58553;SDS011;48119;53.218;6.576;2023-06-26T03:11:19;9.10;;;7.80;;
58553;SDS011;48119;53.218;6.576;2023-06-26T03:13:45;11.38;;;7.75;;
58553;SDS011;48119;53.218;6.576;2023-06-26T03:16:11;11.05;;;8.45;;
58553;SDS011;48119;53.218;6.576;2023-06-26T03:18:36;9.98;;;7.97;;
58553;SDS011;48119;53.218;6.576;2023-06-26T03:21:02;9.68;;;8.32;;
58553;SDS011;48119;53.218;6.576;2023-06-26T03:23:28;10.07;;;7.85;;
58553;SDS011;48119;53.218;6.576;2023-06-26T03:25:54;9.32;;;8.32;;
58553;SDS011;48119;53.218;6.576;2023-06-26T03:28:19;8.82;;;7.90;;
58553;SDS011;48119;53.218;6.576;2023-06-26T03:30:45;10.25;;;8.77;;
58553;SDS011;48119;53.218;6.576;2023-06-26T03:33:11;10.25;;;8.82;;
58553;SDS011;48119;53.218;6.576;2023-06-26T03:35:37;11.57;;;8.60;;
58553;SDS011;48119;53.218;6.576;2023-06-26T03:38:03;9.95;;;8.45;;
58553;SDS011;48119;53.218;6.576;2023-06-26T03:40:32;9.63;;;8.07;;
58553;SDS011;48119;53.218;6.576;2023-06-26T03:42:58;9.20;;;7.90;;
58553;SDS011;48119;53.218;6.576;2023-06-26T03:45:24;11.68;;;9.15;;
58553;SDS011;48119;53.218;6.576;2023-06-26T03:47:49;9.48;;;8.38;;
58553;SDS011;48119;53.218;6.576;2023-06-26T03:50:15;12.75;;;9.40;;
58553;SDS011;48119;53.218;6.576;2023-06-26T03:52:41;11.55;;;9.32;;
58553;SDS011;48119;53.218;6.576;2023-06-26T03:55:07;10.80;;;8.25;;
58553;SDS011;48119;53.218;6.576;2023-06-26T03:57:33;11.18;;;8.60;;
58553;SDS011;48119;53.218;6.576;2023-06-26T03:59:59;11.80;;;8.98;;
58553;SDS011;48119;53.218;6.576;2023-06-26T04:02:25;11.13;;;8.80;;
58553;SDS011;48119;53.218;6.576;2023-06-26T04:04:50;9.68;;;8.02;;
58553;SDS011;48119;53.218;6.576;2023-06-26T04:07:18;9.10;;;8.20;;
58553;SDS011;48119;53.218;6.576;2023-06-26T04:09:44;12.05;;;8.30;;
58553;SDS011;48119;53.218;6.576;2023-06-26T04:12:10;10.55;;;8.23;;
58553;SDS011;48119;53.218;6.576;2023-06-26T04:14:35;9.38;;;8.35;;
58553;SDS011;48119;53.218;6.576;2023-06-26T04:17:01;10.75;;;7.75;;
58553;SDS011;48119;53.218;6.576;2023-06-26T04:19:28;11.25;;;8.40;;
58553;SDS011;48119;53.218;6.576;2023-06-26T04:21:55;9.73;;;7.45;;
58553;SDS011;48119;53.218;6.576;2023-06-26T04:24:21;10.98;;;8.18;;
58553;SDS011;48119;53.218;6.576;2023-06-26T04:26:47;10.10;;;7.75;;
58553;SDS011;48119;53.218;6.576;2023-06-26T04:29:13;10.27;;;8.55;;
58553;SDS011;48119;53.218;6.576;2023-06-26T04:31:39;10.80;;;8.30;;
58553;SDS011;48119;53.218;6.576;2023-06-26T04:34:05;10.02;;;7.82;;
58553;SDS011;48119;53.218;6.576;2023-06-26T04:36:31;9.27;;;7.90;;
58553;SDS011;48119;53.218;6.576;2023-06-26T04:38:58;11.35;;;7.20;;
58553;SDS011;48119;53.218;6.576;2023-06-26T04:41:25;10.75;;;7.30;;
58553;SDS011;48119;53.218;6.576;2023-06-26T04:43:50;9.32;;;7.68;;
58553;SDS011;48119;53.218;6.576;2023-06-26T04:46:16;9.13;;;7.65;;
58553;SDS011;48119;53.218;6.576;2023-06-26T04:48:42;9.75;;;6.75;;
58553;SDS011;48119;53.218;6.576;2023-06-26T04:51:10;16.08;;;7.32;;
58553;SDS011;48119;53.218;6.576;2023-06-26T04:53:36;12.38;;;6.78;;
58553;SDS011;48119;53.218;6.576;2023-06-26T04:56:02;15.40;;;6.90;;
58553;SDS011;48119;53.218;6.576;2023-06-26T04:58:28;14.55;;;6.90;;
58553;SDS011;48119;53.218;6.576;2023-06-26T05:00:55;14.85;;;7.72;;
58553;SDS011;48119;53.218;6.576;2023-06-26T05:03:21;11.75;;;7.13;;
58553;SDS011;48119;53.218;6.576;2023-06-26T05:05:48;12.82;;;6.82;;
58553;SDS011;48119;53.218;6.576;2023-06-26T05:08:17;15.27;;;8.40;;
58553;SDS011;48119;53.218;6.576;2023-06-26T05:10:43;9.88;;;6.75;;
58553;SDS011;48119;53.218;6.576;2023-06-26T05:13:09;13.80;;;7.93;;
58553;SDS011;48119;53.218;6.576;2023-06-26T05:15:35;17.15;;;8.45;;
58553;SDS011;48119;53.218;6.576;2023-06-26T05:18:02;13.00;;;8.75;;
58553;SDS011;48119;53.218;6.576;2023-06-26T05:20:28;15.80;;;8.95;;
58553;SDS011;48119;53.218;6.576;2023-06-26T05:22:53;14.93;;;8.20;;
58553;SDS011;48119;53.218;6.576;2023-06-26T05:25:20;13.45;;;8.43;;
58553;SDS011;48119;53.218;6.576;2023-06-26T05:27:47;14.95;;;9.00;;
58553;SDS011;48119;53.218;6.576;2023-06-26T05:30:13;12.32;;;8.05;;
58553;SDS011;48119;53.218;6.576;2023-06-26T05:32:39;18.25;;;9.27;;
58553;SDS011;48119;53.218;6.576;2023-06-26T05:35:06;15.32;;;8.35;;
58553;SDS011;48119;53.218;6.576;2023-06-26T05:37:33;16.52;;;7.57;;
58553;SDS011;48119;53.218;6.576;2023-06-26T05:39:59;13.55;;;6.72;;
58553;SDS011;48119;53.218;6.576;2023-06-26T05:42:29;9.95;;;5.43;;
58553;SDS011;48119;53.218;6.576;2023-06-26T05:44:55;13.55;;;6.05;;
58553;SDS011;48119;53.218;6.576;2023-06-26T05:47:21;10.30;;;5.85;;
58553;SDS011;48119;53.218;6.576;2023-06-26T05:49:47;12.02;;;5.65;;
58553;SDS011;48119;53.218;6.576;2023-06-26T05:52:13;13.73;;;6.38;;
58553;SDS011;48119;53.218;6.576;2023-06-26T05:54:39;11.85;;;6.65;;
58553;SDS011;48119;53.218;6.576;2023-06-26T05:57:05;11.00;;;5.82;;
58553;SDS011;48119;53.218;6.576;2023-06-26T05:59:32;10.57;;;5.50;;
58553;SDS011;48119;53.218;6.576;2023-06-26T06:01:58;10.48;;;5.72;;
58553;SDS011;48119;53.218;6.576;2023-06-26T06:04:23;9.80;;;5.65;;
58553;SDS011;48119;53.218;6.576;2023-06-26T06:06:49;15.35;;;5.28;;
58553;SDS011;48119;53.218;6.576;2023-06-26T06:09:15;18.92;;;5.22;;
58553;SDS011;48119;53.218;6.576;2023-06-26T06:11:41;9.23;;;5.75;;
58553;SDS011;48119;53.218;6.576;2023-06-26T06:14:06;10.25;;;4.80;;
58553;SDS011;48119;53.218;6.576;2023-06-26T06:16:32;10.77;;;4.93;;
58553;SDS011;48119;53.218;6.576;2023-06-26T06:18:58;17.55;;;5.28;;
58553;SDS011;48119;53.218;6.576;2023-06-26T06:21:24;14.23;;;5.07;;
58553;SDS011;48119;53.218;6.576;2023-06-26T06:23:49;8.27;;;4.15;;
58553;SDS011;48119;53.218;6.576;2023-06-26T06:26:15;12.18;;;4.20;;
58553;SDS011;48119;53.218;6.576;2023-06-26T06:28:41;11.45;;;4.13;;
58553;SDS011;48119;53.218;6.576;2023-06-26T06:31:07;13.30;;;4.10;;
58553;SDS011;48119;53.218;6.576;2023-06-26T06:33:32;18.55;;;5.80;;
58553;SDS011;48119;53.218;6.576;2023-06-26T06:35:59;14.88;;;4.22;;
58553;SDS011;48119;53.218;6.576;2023-06-26T06:38:25;14.63;;;3.72;;
58553;SDS011;48119;53.218;6.576;2023-06-26T06:40:50;16.67;;;3.75;;
58553;SDS011;48119;53.218;6.576;2023-06-26T06:43:16;9.43;;;3.65;;
58553;SDS011;48119;53.218;6.576;2023-06-26T06:45:42;12.65;;;3.67;;
58553;SDS011;48119;53.218;6.576;2023-06-26T06:48:08;9.52;;;3.53;;
58553;SDS011;48119;53.218;6.576;2023-06-26T06:50:33;12.77;;;4.82;;
58553;SDS011;48119;53.218;6.576;2023-06-26T06:52:59;9.20;;;3.83;;
58553;SDS011;48119;53.218;6.576;2023-06-26T06:55:25;7.55;;;3.30;;
58553;SDS011;48119;53.218;6.576;2023-06-26T06:57:51;11.90;;;4.65;;
58553;SDS011;48119;53.218;6.576;2023-06-26T07:00:17;8.32;;;2.63;;
58553;SDS011;48119;53.218;6.576;2023-06-26T07:02:43;9.25;;;3.28;;
58553;SDS011;48119;53.218;6.576;2023-06-26T07:05:10;9.20;;;2.75;;
58553;SDS011;48119;53.218;6.576;2023-06-26T07:07:37;6.93;;;2.70;;
58553;SDS011;48119;53.218;6.576;2023-06-26T07:10:04;4.85;;;2.25;;
58553;SDS011;48119;53.218;6.576;2023-06-26T07:12:33;7.68;;;2.28;;
58553;SDS011;48119;53.218;6.576;2023-06-26T07:14:59;8.85;;;3.15;;
58553;SDS011;48119;53.218;6.576;2023-06-26T07:17:25;6.60;;;2.70;;
58553;SDS011;48119;53.218;6.576;2023-06-26T07:19:51;6.43;;;2.45;;
58553;SDS011;48119;53.218;6.576;2023-06-26T07:22:17;6.82;;;2.47;;
58553;SDS011;48119;53.218;6.576;2023-06-26T07:24:46;10.77;;;3.13;;
58553;SDS011;48119;53.218;6.576;2023-06-26T07:27:14;7.45;;;2.60;;
58553;SDS011;48119;53.218;6.576;2023-06-26T07:29:44;3.35;;;1.95;;
58553;SDS011;48119;53.218;6.576;2023-06-26T07:32:10;10.27;;;2.83;;
58553;SDS011;48119;53.218;6.576;2023-06-26T07:34:36;11.95;;;3.10;;
58553;SDS011;48119;53.218;6.576;2023-06-26T07:37:02;6.53;;;2.78;;
58553;SDS011;48119;53.218;6.576;2023-06-26T07:39:29;6.45;;;2.08;;
58553;SDS011;48119;53.218;6.576;2023-06-26T07:41:54;10.52;;;2.40;;
58553;SDS011;48119;53.218;6.576;2023-06-26T07:44:21;7.22;;;2.55;;
58553;SDS011;48119;53.218;6.576;2023-06-26T07:46:47;7.22;;;2.15;;
58553;SDS011;48119;53.218;6.576;2023-06-26T07:49:13;6.03;;;2.65;;
58553;SDS011;48119;53.218;6.576;2023-06-26T07:51:38;7.00;;;2.35;;
58553;SDS011;48119;53.218;6.576;2023-06-26T07:54:04;5.57;;;1.95;;
58553;SDS011;48119;53.218;6.576;2023-06-26T07:56:30;9.68;;;2.60;;
58553;SDS011;48119;53.218;6.576;2023-06-26T07:58:56;7.22;;;1.65;;
58553;SDS011;48119;53.218;6.576;2023-06-26T08:01:29;4.28;;;1.73;;
58553;SDS011;48119;53.218;6.576;2023-06-26T08:03:54;8.32;;;2.15;;
58553;SDS011;48119;53.218;6.576;2023-06-26T08:06:20;3.88;;;1.67;;
58553;SDS011;48119;53.218;6.576;2023-06-26T08:08:46;4.72;;;1.77;;
58553;SDS011;48119;53.218;6.576;2023-06-26T08:11:12;5.15;;;2.10;;
58553;SDS011;48119;53.218;6.576;2023-06-26T08:13:37;4.25;;;1.70;;
58553;SDS011;48119;53.218;6.576;2023-06-26T08:16:04;6.38;;;1.85;;
58553;SDS011;48119;53.218;6.576;2023-06-26T08:18:30;7.10;;;1.80;;
58553;SDS011;48119;53.218;6.576;2023-06-26T08:20:56;6.72;;;1.70;;
58553;SDS011;48119;53.218;6.576;2023-06-26T08:23:21;5.70;;;2.00;;
58553;SDS011;48119;53.218;6.576;2023-06-26T08:25:47;6.13;;;2.00;;
58553;SDS011;48119;53.218;6.576;2023-06-26T08:28:13;5.50;;;1.63;;
58553;SDS011;48119;53.218;6.576;2023-06-26T08:30:39;5.40;;;2.00;;
58553;SDS011;48119;53.218;6.576;2023-06-26T08:33:05;3.58;;;2.30;;
58553;SDS011;48119;53.218;6.576;2023-06-26T08:35:35;8.65;;;2.58;;
58553;SDS011;48119;53.218;6.576;2023-06-26T08:38:01;8.95;;;2.78;;
58553;SDS011;48119;53.218;6.576;2023-06-26T08:40:27;6.80;;;1.95;;
58553;SDS011;48119;53.218;6.576;2023-06-26T08:42:53;5.00;;;2.10;;
58553;SDS011;48119;53.218;6.576;2023-06-26T08:45:19;5.57;;;2.15;;
58553;SDS011;48119;53.218;6.576;2023-06-26T08:47:45;7.05;;;2.70;;
58553;SDS011;48119;53.218;6.576;2023-06-26T08:50:16;5.40;;;1.92;;
58553;SDS011;48119;53.218;6.576;2023-06-26T08:52:53;4.15;;;2.15;;
58553;SDS011;48119;53.218;6.576;2023-06-26T08:55:43;4.53;;;2.20;;
58553;SDS011;48119;53.218;6.576;2023-06-26T08:58:09;7.65;;;2.45;;
58553;SDS011;48119;53.218;6.576;2023-06-26T09:00:36;7.50;;;2.20;;
58553;SDS011;48119;53.218;6.576;2023-06-26T09:03:03;4.13;;;1.95;;
58553;SDS011;48119;53.218;6.576;2023-06-26T09:05:29;3.55;;;1.88;;
58553;SDS011;48119;53.218;6.576;2023-06-26T09:07:57;4.72;;;1.98;;
58553;SDS011;48119;53.218;6.576;2023-06-26T09:10:23;7.40;;;1.98;;
58553;SDS011;48119;53.218;6.576;2023-06-26T09:12:49;6.65;;;2.45;;
58553;SDS011;48119;53.218;6.576;2023-06-26T09:15:15;7.10;;;1.98;;
58553;SDS011;48119;53.218;6.576;2023-06-26T09:17:45;5.32;;;2.10;;
58553;SDS011;48119;53.218;6.576;2023-06-26T09:20:12;4.40;;;1.73;;
58553;SDS011;48119;53.218;6.576;2023-06-26T09:22:42;5.10;;;2.28;;
58553;SDS011;48119;53.218;6.576;2023-06-26T09:25:12;6.30;;;2.17;;
58553;SDS011;48119;53.218;6.576;2023-06-26T09:27:38;4.10;;;2.20;;
58553;SDS011;48119;53.218;6.576;2023-06-26T09:30:04;6.45;;;2.25;;
58553;SDS011;48119;53.218;6.576;2023-06-26T09:32:33;4.70;;;2.45;;
58553;SDS011;48119;53.218;6.576;2023-06-26T09:35:02;7.32;;;2.33;;
58553;SDS011;48119;53.218;6.576;2023-06-26T09:37:29;5.70;;;1.80;;
58553;SDS011;48119;53.218;6.576;2023-06-26T09:39:55;12.68;;;2.55;;
58553;SDS011;48119;53.218;6.576;2023-06-26T09:42:22;6.32;;;2.35;;
58553;SDS011;48119;53.218;6.576;2023-06-26T09:44:49;6.93;;;2.45;;
58553;SDS011;48119;53.218;6.576;2023-06-26T09:47:16;4.35;;;2.28;;
58553;SDS011;48119;53.218;6.576;2023-06-26T09:49:43;5.13;;;2.65;;
58553;SDS011;48119;53.218;6.576;2023-06-26T09:52:09;6.15;;;2.00;;
58553;SDS011;48119;53.218;6.576;2023-06-26T09:54:38;5.50;;;2.28;;
58553;SDS011;48119;53.218;6.576;2023-06-26T09:57:11;11.90;;;2.25;;
58553;SDS011;48119;53.218;6.576;2023-06-26T09:59:38;5.53;;;2.58;;
58553;SDS011;48119;53.218;6.576;2023-06-26T10:02:05;6.57;;;2.72;;
58553;SDS011;48119;53.218;6.576;2023-06-26T10:04:31;9.00;;;2.63;;
58553;SDS011;48119;53.218;6.576;2023-06-26T10:06:58;4.63;;;2.63;;
58553;SDS011;48119;53.218;6.576;2023-06-26T10:09:26;5.28;;;2.45;;
58553;SDS011;48119;53.218;6.576;2023-06-26T10:11:57;4.93;;;2.60;;
58553;SDS011;48119;53.218;6.576;2023-06-26T10:14:34;6.57;;;2.75;;
58553;SDS011;48119;53.218;6.576;2023-06-26T10:17:06;4.25;;;2.35;;
58553;SDS011;48119;53.218;6.576;2023-06-26T10:19:35;5.18;;;2.30;;
58553;SDS011;48119;53.218;6.576;2023-06-26T10:22:06;7.93;;;2.53;;
58553;SDS011;48119;53.218;6.576;2023-06-26T10:24:34;6.00;;;2.30;;
58553;SDS011;48119;53.218;6.576;2023-06-26T10:27:18;4.88;;;2.92;;
58553;SDS011;48119;53.218;6.576;2023-06-26T10:29:46;4.40;;;2.28;;
58553;SDS011;48119;53.218;6.576;2023-06-26T10:32:16;4.35;;;2.53;;
58553;SDS011;48119;53.218;6.576;2023-06-26T10:34:43;6.55;;;2.40;;
58553;SDS011;48119;53.218;6.576;2023-06-26T10:37:09;5.28;;;2.88;;
58553;SDS011;48119;53.218;6.576;2023-06-26T10:39:47;4.88;;;2.58;;
58553;SDS011;48119;53.218;6.576;2023-06-26T10:42:19;9.35;;;2.55;;
58553;SDS011;48119;53.218;6.576;2023-06-26T10:44:59;4.05;;;2.40;;
58553;SDS011;48119;53.218;6.576;2023-06-26T10:47:48;4.70;;;2.53;;
58553;SDS011;48119;53.218;6.576;2023-06-26T10:52:54;7.63;;;2.58;;
58553;SDS011;48119;53.218;6.576;2023-06-26T10:58:32;6.13;;;2.75;;
58553;SDS011;48119;53.218;6.576;2023-06-26T11:03:36;5.80;;;3.22;;
58553;SDS011;48119;53.218;6.576;2023-06-26T11:06:12;5.72;;;2.50;;
58553;SDS011;48119;53.218;6.576;2023-06-26T11:14:19;3.67;;;2.25;;
58553;SDS011;48119;53.218;6.576;2023-06-26T11:16:46;6.45;;;2.17;;
58553;SDS011;48119;53.218;6.576;2023-06-26T11:19:13;4.97;;;2.55;;
58553;SDS011;48119;53.218;6.576;2023-06-26T11:21:39;7.22;;;2.00;;
58553;SDS011;48119;53.218;6.576;2023-06-26T11:24:09;8.07;;;3.00;;
58553;SDS011;48119;53.218;6.576;2023-06-26T11:29:06;3.78;;;1.80;;
58553;SDS011;48119;53.218;6.576;2023-06-26T11:31:33;8.10;;;2.03;;
58553;SDS011;48119;53.218;6.576;2023-06-26T11:34:04;5.05;;;2.22;;
58553;SDS011;48119;53.218;6.576;2023-06-26T11:36:37;3.13;;;1.98;;
58553;SDS011;48119;53.218;6.576;2023-06-26T11:39:07;6.32;;;2.10;;
58553;SDS011;48119;53.218;6.576;2023-06-26T11:41:34;7.57;;;1.85;;
58553;SDS011;48119;53.218;6.576;2023-06-26T11:44:02;3.65;;;1.70;;
58553;SDS011;48119;53.218;6.576;2023-06-26T11:46:33;4.85;;;1.42;;
58553;SDS011;48119;53.218;6.576;2023-06-26T11:48:59;6.15;;;2.58;;
58553;SDS011;48119;53.218;6.576;2023-06-26T11:51:28;3.67;;;1.70;;
58553;SDS011;48119;53.218;6.576;2023-06-26T11:53:53;4.85;;;2.03;;
58553;SDS011;48119;53.218;6.576;2023-06-26T11:56:19;5.65;;;1.75;;
58553;SDS011;48119;53.218;6.576;2023-06-26T12:01:25;5.95;;;1.75;;
58553;SDS011;48119;53.218;6.576;2023-06-26T12:03:59;6.28;;;2.00;;
58553;SDS011;48119;53.218;6.576;2023-06-26T12:06:27;4.93;;;1.98;;
58553;SDS011;48119;53.218;6.576;2023-06-26T12:08:54;3.97;;;1.88;;
58553;SDS011;48119;53.218;6.576;2023-06-26T12:11:21;4.45;;;1.63;;
58553;SDS011;48119;53.218;6.576;2023-06-26T12:13:48;6.20;;;1.90;;
58553;SDS011;48119;53.218;6.576;2023-06-26T12:16:15;5.65;;;2.00;;
58553;SDS011;48119;53.218;6.576;2023-06-26T12:18:40;5.78;;;1.92;;
58553;SDS011;48119;53.218;6.576;2023-06-26T12:21:06;4.45;;;1.60;;
58553;SDS011;48119;53.218;6.576;2023-06-26T12:23:38;6.60;;;2.08;;
58553;SDS011;48119;53.218;6.576;2023-06-26T12:26:20;5.05;;;2.00;;
58553;SDS011;48119;53.218;6.576;2023-06-26T12:28:46;8.25;;;2.25;;
58553;SDS011;48119;53.218;6.576;2023-06-26T12:31:13;6.20;;;2.25;;
58553;SDS011;48119;53.218;6.576;2023-06-26T12:33:40;6.53;;;2.20;;
58553;SDS011;48119;53.218;6.576;2023-06-26T12:36:13;3.85;;;1.83;;
58553;SDS011;48119;53.218;6.576;2023-06-26T12:38:44;6.20;;;2.10;;
58553;SDS011;48119;53.218;6.576;2023-06-26T12:41:14;4.38;;;1.95;;
58553;SDS011;48119;53.218;6.576;2023-06-26T12:43:40;9.75;;;1.45;;
58553;SDS011;48119;53.218;6.576;2023-06-26T12:46:07;4.53;;;1.73;;
58553;SDS011;48119;53.218;6.576;2023-06-26T12:51:15;3.95;;;1.90;;
58553;SDS011;48119;53.218;6.576;2023-06-26T12:53:41;3.92;;;2.00;;
58553;SDS011;48119;53.218;6.576;2023-06-26T12:56:10;6.80;;;1.52;;
58553;SDS011;48119;53.218;6.576;2023-06-26T12:58:37;5.68;;;1.58;;
58553;SDS011;48119;53.218;6.576;2023-06-26T13:01:03;5.15;;;1.80;;
58553;SDS011;48119;53.218;6.576;2023-06-26T13:03:30;5.20;;;1.48;;
58553;SDS011;48119;53.218;6.576;2023-06-26T13:05:56;6.03;;;1.83;;
58553;SDS011;48119;53.218;6.576;2023-06-26T13:08:22;3.75;;;1.67;;
58553;SDS011;48119;53.218;6.576;2023-06-26T13:10:48;6.45;;;2.47;;
58553;SDS011;48119;53.218;6.576;2023-06-26T13:13:14;5.10;;;1.98;;
58553;SDS011;48119;53.218;6.576;2023-06-26T13:15:40;4.70;;;1.80;;
58553;SDS011;48119;53.218;6.576;2023-06-26T13:18:05;4.40;;;1.60;;
58553;SDS011;48119;53.218;6.576;2023-06-26T13:20:39;5.40;;;1.75;;
58553;SDS011;48119;53.218;6.576;2023-06-26T13:23:04;5.15;;;1.83;;
58553;SDS011;48119;53.218;6.576;2023-06-26T13:25:30;7.78;;;2.38;;
58553;SDS011;48119;53.218;6.576;2023-06-26T13:27:56;3.67;;;1.40;;
58553;SDS011;48119;53.218;6.576;2023-06-26T13:30:22;6.45;;;2.10;;
58553;SDS011;48119;53.218;6.576;2023-06-26T13:32:47;5.82;;;2.33;;
58553;SDS011;48119;53.218;6.576;2023-06-26T13:35:13;6.57;;;2.47;;
58553;SDS011;48119;53.218;6.576;2023-06-26T13:37:40;8.50;;;2.08;;
58553;SDS011;48119;53.218;6.576;2023-06-26T13:40:07;4.60;;;1.52;;
58553;SDS011;48119;53.218;6.576;2023-06-26T13:42:34;5.55;;;2.35;;
58553;SDS011;48119;53.218;6.576;2023-06-26T13:45:01;3.90;;;1.45;;
58553;SDS011;48119;53.218;6.576;2023-06-26T13:47:28;9.07;;;2.25;;
58553;SDS011;48119;53.218;6.576;2023-06-26T13:49:54;4.63;;;1.65;;
58553;SDS011;48119;53.218;6.576;2023-06-26T13:52:20;3.60;;;1.77;;
58553;SDS011;48119;53.218;6.576;2023-06-26T13:54:46;5.13;;;2.00;;
58553;SDS011;48119;53.218;6.576;2023-06-26T13:57:12;7.82;;;2.00;;
58553;SDS011;48119;53.218;6.576;2023-06-26T13:59:38;8.65;;;2.05;;
58553;SDS011;48119;53.218;6.576;2023-06-26T14:02:05;7.03;;;2.20;;
58553;SDS011;48119;53.218;6.576;2023-06-26T14:04:32;4.43;;;1.92;;
58553;SDS011;48119;53.218;6.576;2023-06-26T14:06:58;6.45;;;1.83;;
58553;SDS011;48119;53.218;6.576;2023-06-26T14:09:23;4.97;;;2.20;;
58553;SDS011;48119;53.218;6.576;2023-06-26T14:11:50;6.47;;;2.13;;
58553;SDS011;48119;53.218;6.576;2023-06-26T14:14:16;6.78;;;1.95;;
58553;SDS011;48119;53.218;6.576;2023-06-26T14:16:41;7.03;;;2.38;;
58553;SDS011;48119;53.218;6.576;2023-06-26T14:19:07;7.80;;;2.15;;
58553;SDS011;48119;53.218;6.576;2023-06-26T14:21:40;7.65;;;1.98;;
58553;SDS011;48119;53.218;6.576;2023-06-26T14:24:06;9.38;;;2.20;;
58553;SDS011;48119;53.218;6.576;2023-06-26T14:26:32;11.15;;;2.20;;
58553;SDS011;48119;53.218;6.576;2023-06-26T14:28:59;7.43;;;2.05;;
58553;SDS011;48119;53.218;6.576;2023-06-26T14:31:25;4.97;;;2.10;;
58553;SDS011;48119;53.218;6.576;2023-06-26T14:33:51;6.43;;;2.20;;
58553;SDS011;48119;53.218;6.576;2023-06-26T14:36:17;9.52;;;2.58;;
58553;SDS011;48119;53.218;6.576;2023-06-26T14:38:44;8.90;;;2.17;;
58553;SDS011;48119;53.218;6.576;2023-06-26T14:41:10;8.45;;;2.10;;
58553;SDS011;48119;53.218;6.576;2023-06-26T14:43:36;6.45;;;2.20;;
58553;SDS011;48119;53.218;6.576;2023-06-26T14:46:03;4.57;;;1.90;;
58553;SDS011;48119;53.218;6.576;2023-06-26T14:48:29;10.20;;;2.47;;
58553;SDS011;48119;53.218;6.576;2023-06-26T14:50:55;10.35;;;2.15;;
58553;SDS011;48119;53.218;6.576;2023-06-26T14:53:21;5.65;;;2.35;;
58553;SDS011;48119;53.218;6.576;2023-06-26T14:55:47;7.97;;;2.55;;
58553;SDS011;48119;53.218;6.576;2023-06-26T14:58:12;5.43;;;1.80;;
58553;SDS011;48119;53.218;6.576;2023-06-26T15:00:38;7.22;;;2.17;;
58553;SDS011;48119;53.218;6.576;2023-06-26T15:03:04;5.82;;;2.17;;
58553;SDS011;48119;53.218;6.576;2023-06-26T15:05:30;10.80;;;2.20;;
58553;SDS011;48119;53.218;6.576;2023-06-26T15:07:55;4.88;;;1.92;;